Minerva Libra — SVAA7 — position and weather

sailwx.info

Track history (hours):
 
Tides and Currents Weather Stations Pressure Air Temp Water Temp Dewpoint Dewpoint Depression Visibility Wind Speed Wind Dir Waves Ship Positions

Minerva Libra

Last reported at 2015-Jul-30 09:10 UTC. Time now 2015-Jul-30 10:05 UTC.
Position N 53°04' E 004°27'.

Length 250 m; draft 6.8 m.

Type: Tanker. MMSI: 240766000.

Date/timePositionNaut miles runAvg speedWind from/ knotsBaromVisibWave heightAir tempDewpointWater temp
2015-Jul-30 09:10N 53°04' E 004°27'711.0
2015-Jul-30 08:33N 52°58' E 004°21'1111.0
2015-Jul-30 07:33N 52°48' E 004°14'1111.2
2015-Jul-30 06:33N 52°39' E 004°03'1111.5
2015-Jul-30 05:33N 52°29' E 003°55'1212.1
2015-Jul-30 04:33N 52°17' E 003°52'1312.7
2015-Jul-30 03:34N 52°05' E 003°55'9 8.6
2015-Jul-30 02:33N 51°58' E 004°05'4 3.6
2015-Jul-30 01:33N 51°59' E 003°59'0 0.0
2015-Jul-30 00:32N 51°59' E 003°59'0 0.0
2015-Jul-29 23:32N 51°59' E 003°59'0 0.0
2015-Jul-29 22:32N 51°59' E 003°59'0 0.0
2015-Jul-29 21:32N 51°59' E 003°59'0 0.0
2015-Jul-29 20:32N 51°59' E 003°59'0 0.0
2015-Jul-29 19:32N 51°59' E 003°59'0 0.0
2015-Jul-29 18:32N 51°59' E 003°59'0 0.0
2015-Jul-29 17:32N 51°59' E 003°59'0 0.0
2015-Jul-29 16:32N 51°59' E 003°59'0 0.0
2015-Jul-29 15:32N 51°59' E 003°59'0 0.0
2015-Jul-29 14:32N 51°59' E 003°59'0 0.0
2015-Jul-29 13:32N 51°59' E 003°59'0 0.0
2015-Jul-29 12:32N 51°59' E 003°59'0 0.0
2015-Jul-29 11:29N 51°59' E 003°59'0 0.0
2015-Jul-29 10:26N 51°59' E 003°59'0 0.0
2015-Jul-29 09:32N 51°59' E 003°59'0 0.0
2015-Jul-29 08:32N 51°59' E 003°59'0 0.0
2015-Jul-29 07:32N 51°59' E 003°59'0 0.0
2015-Jul-29 06:32N 51°59' E 003°59'0 0.0
2015-Jul-29 05:32N 51°59' E 003°59'0 0.0
2015-Jul-29 04:32N 51°59' E 003°59'0 0.0
2015-Jul-29 03:26N 51°59' E 003°59'0 0.0
2015-Jul-29 02:32N 51°59' E 003°59'0 0.0
2015-Jul-29 01:29N 51°59' E 003°59'0 0.0
2015-Jul-29 00:23N 51°59' E 003°59'0 0.0
2015-Jul-28 23:32N 51°59' E 003°59'0 0.0
2015-Jul-28 22:26N 51°59' E 003°59'0 0.0
2015-Jul-28 21:32N 51°59' E 003°59'0 0.0
2015-Jul-28 20:17N 51°59' E 003°59'0 0.0
2015-Jul-28 19:32N 51°59' E 003°59'0 0.0
2015-Jul-28 18:32N 51°59' E 003°59'0 0.0
2015-Jul-28 17:32N 51°59' E 003°59'0 0.0
2015-Jul-28 16:33N 51°59' E 003°59'0 0.4
2015-Jul-28 15:33N 51°59' E 004°00'3 3.2
2015-Jul-28 14:33N 51°58' E 004°05'2 1.6
2015-Jul-28 13:33N 51°57' E 004°08'0 0.0
2015-Jul-28 12:27N 51°57' E 004°08'0 0.0
2015-Jul-28 11:33N 51°57' E 004°08'0 0.0
2015-Jul-28 10:21N 51°57' E 004°08'0 0.0
2015-Jul-28 09:33N 51°57' E 004°08'0 0.0
2015-Jul-28 08:33N 51°57' E 004°08'0 0.0
2015-Jul-28 07:33N 51°57' E 004°08'0 0.0
2015-Jul-28 06:33N 51°57' E 004°08'0 0.0
2015-Jul-28 05:33N 51°57' E 004°08'0 0.0
2015-Jul-28 04:33N 51°57' E 004°08'0 0.0
2015-Jul-28 03:33N 51°57' E 004°08'0 0.0
2015-Jul-28 02:33N 51°57' E 004°08'0 0.0
2015-Jul-28 01:33N 51°57' E 004°08'0 0.0
2015-Jul-28 00:33N 51°57' E 004°08'0 0.0
2015-Jul-27 23:33N 51°57' E 004°08'0 0.0
2015-Jul-27 22:33N 51°57' E 004°08'0 0.0
2015-Jul-27 21:33N 51°57' E 004°08'0 0.0
2015-Jul-27 20:33N 51°57' E 004°08'0 0.0
2015-Jul-27 19:33N 51°57' E 004°08'0 0.0
2015-Jul-27 18:33N 51°57' E 004°08'0 0.0
2015-Jul-27 17:30N 51°57' E 004°08'0 0.0
2015-Jul-27 16:33N 51°57' E 004°08'0 0.0
2015-Jul-27 15:33N 51°57' E 004°08'0 0.0
2015-Jul-27 14:33N 51°57' E 004°08'0 0.0
2015-Jul-27 13:33N 51°57' E 004°08'0 0.0
2015-Jul-27 12:33N 51°57' E 004°08'0 0.0
2015-Jul-27 11:27N 51°57' E 004°08'0 0.0
2015-Jul-27 10:33N 51°57' E 004°08'0 0.0
2015-Jul-27 09:33N 51°57' E 004°08'0 0.0
2015-Jul-27 08:33N 51°57' E 004°08'0 0.0
2015-Jul-27 07:33N 51°57' E 004°08'0 0.0
2015-Jul-27 06:33N 51°57' E 004°08'0 0.0
2015-Jul-27 05:33N 51°57' E 004°08'0 0.0
2015-Jul-27 04:33N 51°57' E 004°08'0 0.0
2015-Jul-27 03:33N 51°57' E 004°08'0 0.0
2015-Jul-27 02:33N 51°57' E 004°08'0 0.0
2015-Jul-27 01:33N 51°57' E 004°08'0 0.0
2015-Jul-27 00:33N 51°57' E 004°08'0 0.0
2015-Jul-26 23:33N 51°57' E 004°08'0 0.0
2015-Jul-26 22:33N 51°57' E 004°08'0 0.0
2015-Jul-26 21:33N 51°57' E 004°08'0 0.0
2015-Jul-26 20:33N 51°57' E 004°08'0 0.0
2015-Jul-26 19:33N 51°57' E 004°08'0 0.0
2015-Jul-26 18:33N 51°57' E 004°08'0 0.0
2015-Jul-26 17:33N 51°57' E 004°08'0 0.0
2015-Jul-26 16:33N 51°57' E 004°08'0 0.0
2015-Jul-26 15:33N 51°57' E 004°08'0 0.0
2015-Jul-26 14:33N 51°57' E 004°08'0 0.0
2015-Jul-26 13:33N 51°57' E 004°08'0 0.0
2015-Jul-26 12:33N 51°57' E 004°08'0 0.0
2015-Jul-26 11:33N 51°57' E 004°08'0 0.0
2015-Jul-26 10:33N 51°57' E 004°08'0 0.0
2015-Jul-26 09:33N 51°57' E 004°08'0 0.0
2015-Jul-26 08:33N 51°57' E 004°08'0 0.0
2015-Jul-26 07:33N 51°57' E 004°08'0 0.0
2015-Jul-26 06:33N 51°57' E 004°08'0 0.0
2015-Jul-26 05:33N 51°57' E 004°08'0 0.0
2015-Jul-26 04:33N 51°57' E 004°08'0 0.0
2015-Jul-26 03:33N 51°57' E 004°08'0 0.0
2015-Jul-26 02:33N 51°57' E 004°08'0 0.0
2015-Jul-26 01:33N 51°57' E 004°08'0 0.0
2015-Jul-26 00:33N 51°57' E 004°08'0 0.0
2015-Jul-25 23:33N 51°57' E 004°08'0 0.0
2015-Jul-25 22:33N 51°57' E 004°08'0 0.0
2015-Jul-25 21:33N 51°57' E 004°08'0 0.0
2015-Jul-25 20:33N 51°57' E 004°08'0 0.0
2015-Jul-25 19:33N 51°57' E 004°08'0 0.0
2015-Jul-25 18:30N 51°57' E 004°08'0 0.0
2015-Jul-25 17:33N 51°57' E 004°08'0 0.0
2015-Jul-25 16:33N 51°57' E 004°08'0 0.0
2015-Jul-25 15:33N 51°57' E 004°08'0 0.0
2015-Jul-25 14:33N 51°57' E 004°08'0 0.0
2015-Jul-25 13:33N 51°57' E 004°08'0 0.0
2015-Jul-25 12:33N 51°57' E 004°08'0 0.0
2015-Jul-25 11:33N 51°57' E 004°08'0 0.0
2015-Jul-25 10:33N 51°57' E 004°08'0 0.0
2015-Jul-25 09:33N 51°57' E 004°08'0 0.0
2015-Jul-25 08:33N 51°57' E 004°08'0 0.0
2015-Jul-25 07:33N 51°57' E 004°08'0 0.0
2015-Jul-25 06:33N 51°57' E 004°08'0 0.0
2015-Jul-25 05:33N 51°57' E 004°08'0 0.0
2015-Jul-25 04:33N 51°57' E 004°08'0 0.0
2015-Jul-25 03:33N 51°57' E 004°08'0 0.0
2015-Jul-25 02:33N 51°57' E 004°08'0 0.0
2015-Jul-25 01:33N 51°57' E 004°08'0 0.0
2015-Jul-25 00:33N 51°57' E 004°08'0 0.0
2015-Jul-24 23:33N 51°57' E 004°08'0 0.0
2015-Jul-24 22:30N 51°57' E 004°08'0 0.0
2015-Jul-24 21:33N 51°57' E 004°08'0 0.0
2015-Jul-24 20:27N 51°57' E 004°08'0 0.0
2015-Jul-24 19:33N 51°57' E 004°08'0 0.0
2015-Jul-24 18:33N 51°57' E 004°08'0 0.0
2015-Jul-24 17:33N 51°57' E 004°08'0 0.0
2015-Jul-24 16:33N 51°57' E 004°08'0 0.0
2015-Jul-24 15:33N 51°57' E 004°08'0 0.0
2015-Jul-24 14:33N 51°57' E 004°08'0 0.0
2015-Jul-24 13:33N 51°57' E 004°08'0 0.0
2015-Jul-24 12:33N 51°57' E 004°08'0 0.0
2015-Jul-24 11:33N 51°57' E 004°08'0 0.0
2015-Jul-24 10:33N 51°57' E 004°08'0 0.0
2015-Jul-24 09:33N 51°57' E 004°08'0 0.0
2015-Jul-24 08:33N 51°57' E 004°08'0 0.0
2015-Jul-24 07:33N 51°57' E 004°08'0 0.0
2015-Jul-24 06:33N 51°57' E 004°08'0 0.0
2015-Jul-24 05:33N 51°57' E 004°08'0 0.0
2015-Jul-24 04:33N 51°57' E 004°08'0 0.0
2015-Jul-24 03:33N 51°57' E 004°08'0 0.0
2015-Jul-24 02:33N 51°57' E 004°08'0 0.0
2015-Jul-24 01:33N 51°57' E 004°08'0 0.0
2015-Jul-24 00:33N 51°57' E 004°08'0 0.0
2015-Jul-23 23:33N 51°57' E 004°08'0 0.0
2015-Jul-23 22:33N 51°57' E 004°08'0 0.0
2015-Jul-23 21:33N 51°57' E 004°08'0 0.0
2015-Jul-23 20:33N 51°57' E 004°08'0 0.0
2015-Jul-23 19:33N 51°57' E 004°08'0 0.0
2015-Jul-23 18:33N 51°57' E 004°08'0 0.0
2015-Jul-23 17:30N 51°57' E 004°08'0 0.0
2015-Jul-23 16:33N 51°57' E 004°08'0 0.0
2015-Jul-23 15:33N 51°57' E 004°08'0 0.0
2015-Jul-23 14:27N 51°57' E 004°08'0 0.0
2015-Jul-23 13:33N 51°57' E 004°08'0 0.0
2015-Jul-23 12:33N 51°57' E 004°08'0 0.0
2015-Jul-23 11:27N 51°57' E 004°08'0 0.0
2015-Jul-23 10:33N 51°57' E 004°08'0 0.0
2015-Jul-23 09:30N 51°57' E 004°08'0 0.0
2015-Jul-23 08:33N 51°57' E 004°08'0 0.0
2015-Jul-23 07:33N 51°57' E 004°08'0 0.0
2015-Jul-23 06:33N 51°57' E 004°08'0 0.0
2015-Jul-23 05:33N 51°57' E 004°08'0 0.0
2015-Jul-23 04:32N 51°57' E 004°08'1 0.7
2015-Jul-23 03:34N 51°57' E 004°09'1 1.0
2015-Jul-23 02:32N 51°56' E 004°10'0 0.0
2015-Jul-23 01:32N 51°56' E 004°10'0 0.0
2015-Jul-23 00:32N 51°56' E 004°10'0 0.0
2015-Jul-22 23:32N 51°56' E 004°10'0 0.0
2015-Jul-22 22:32N 51°56' E 004°10'0 0.0
2015-Jul-22 21:31N 51°56' E 004°10'0 0.0
2015-Jul-22 20:31N 51°56' E 004°10'0 0.0
2015-Jul-22 19:32N 51°56' E 004°10'0 0.0
2015-Jul-22 18:32N 51°56' E 004°10'0 0.0
2015-Jul-22 17:32N 51°56' E 004°10'0 0.0
2015-Jul-22 16:32N 51°56' E 004°10'0 0.0
2015-Jul-22 15:31N 51°56' E 004°10'0 0.0
2015-Jul-22 14:32N 51°56' E 004°10'0 0.0
2015-Jul-22 13:31N 51°56' E 004°10'0 0.0
2015-Jul-22 12:31N 51°56' E 004°10'0 0.0
2015-Jul-22 11:31N 51°56' E 004°10'0 0.0
2015-Jul-22 10:32N 51°56' E 004°10'0 0.0
2015-Jul-22 09:32N 51°56' E 004°10'0 0.0
2015-Jul-22 08:31N 51°56' E 004°10'0 0.0
2015-Jul-22 07:31N 51°56' E 004°10'0 0.0
2015-Jul-22 06:31N 51°56' E 004°10'0 0.0
2015-Jul-22 05:31N 51°56' E 004°10'0 0.0
2015-Jul-22 04:32N 51°56' E 004°10'0 0.0
2015-Jul-22 03:31N 51°56' E 004°10'0 0.0
2015-Jul-22 02:29N 51°56' E 004°10'0 0.0
2015-Jul-22 01:31N 51°56' E 004°10'0 0.0
2015-Jul-22 00:31N 51°56' E 004°10'0 0.0
2015-Jul-21 23:32N 51°56' E 004°10'0 0.0
2015-Jul-21 22:31N 51°56' E 004°10'0 0.0
2015-Jul-21 21:28N 51°56' E 004°10'0 0.0
2015-Jul-21 20:32N 51°56' E 004°10'0 0.0
2015-Jul-21 19:31N 51°56' E 004°10'0 0.0
2015-Jul-21 18:31N 51°56' E 004°10'0 0.0
2015-Jul-21 17:31N 51°56' E 004°10'0 0.0
2015-Jul-21 16:31N 51°56' E 004°10'0 0.0
2015-Jul-21 15:31N 51°56' E 004°10'0 0.0
2015-Jul-21 14:31N 51°56' E 004°10'0 0.0
2015-Jul-21 13:31N 51°56' E 004°10'0 0.0
2015-Jul-21 12:31N 51°56' E 004°10'0 0.0
2015-Jul-21 11:31N 51°56' E 004°10'0 0.0
2015-Jul-21 10:31N 51°56' E 004°10'0 0.0
2015-Jul-21 09:33N 51°56' E 004°10'2 2.3
2015-Jul-21 08:33N 51°58' E 004°07'1010.3
2015-Jul-21 07:33N 52°01' E 003°51'7 6.5
2015-Jul-21 06:32N 52°02' E 003°40'9 0.5
2015-Jul-20 10:33N 52°10' E 003°34'  
Track history (hours):
 
Tides and Currents Weather Stations Pressure Air Temp Water Temp Dewpoint Dewpoint Depression Visibility Wind Speed Wind Dir Waves Ship Positions

Minerva Libra

Last reported at 2015-Jul-30 09:10 UTC. Time now 2015-Jul-30 10:05 UTC.
Position N 53°04' E 004°27'.

Length 250 m; draft 6.8 m.

Type: Tanker. MMSI: 240766000.

Date/timePositionNaut miles runAvg speedWind from/ knotsBaromVisibWave heightAir tempDewpointWater temp
2015-Jul-30 09:10N 53°04' E 004°27'711.0
2015-Jul-30 08:33N 52°58' E 004°21'1111.0
2015-Jul-30 07:33N 52°48' E 004°14'1111.2
2015-Jul-30 06:33N 52°39' E 004°03'1111.5
2015-Jul-30 05:33N 52°29' E 003°55'1212.1
2015-Jul-30 04:33N 52°17' E 003°52'1312.7
2015-Jul-30 03:34N 52°05' E 003°55'9 8.6
2015-Jul-30 02:33N 51°58' E 004°05'4 3.6
2015-Jul-30 01:33N 51°59' E 003°59'0 0.0
2015-Jul-30 00:32N 51°59' E 003°59'0 0.0
2015-Jul-29 23:32N 51°59' E 003°59'0 0.0
2015-Jul-29 22:32N 51°59' E 003°59'0 0.0
2015-Jul-29 21:32N 51°59' E 003°59'0 0.0
2015-Jul-29 20:32N 51°59' E 003°59'0 0.0
2015-Jul-29 19:32N 51°59' E 003°59'0 0.0
2015-Jul-29 18:32N 51°59' E 003°59'0 0.0
2015-Jul-29 17:32N 51°59' E 003°59'0 0.0
2015-Jul-29 16:32N 51°59' E 003°59'0 0.0
2015-Jul-29 15:32N 51°59' E 003°59'0 0.0
2015-Jul-29 14:32N 51°59' E 003°59'0 0.0
2015-Jul-29 13:32N 51°59' E 003°59'0 0.0
2015-Jul-29 12:32N 51°59' E 003°59'0 0.0
2015-Jul-29 11:29N 51°59' E 003°59'0 0.0
2015-Jul-29 10:26N 51°59' E 003°59'0 0.0
2015-Jul-29 09:32N 51°59' E 003°59'0 0.0
2015-Jul-29 08:32N 51°59' E 003°59'0 0.0
2015-Jul-29 07:32N 51°59' E 003°59'0 0.0
2015-Jul-29 06:32N 51°59' E 003°59'0 0.0
2015-Jul-29 05:32N 51°59' E 003°59'0 0.0
2015-Jul-29 04:32N 51°59' E 003°59'0 0.0
2015-Jul-29 03:26N 51°59' E 003°59'0 0.0
2015-Jul-29 02:32N 51°59' E 003°59'0 0.0
2015-Jul-29 01:29N 51°59' E 003°59'0 0.0
2015-Jul-29 00:23N 51°59' E 003°59'0 0.0
2015-Jul-28 23:32N 51°59' E 003°59'0 0.0
2015-Jul-28 22:26N 51°59' E 003°59'0 0.0
2015-Jul-28 21:32N 51°59' E 003°59'0 0.0
2015-Jul-28 20:17N 51°59' E 003°59'0 0.0
2015-Jul-28 19:32N 51°59' E 003°59'0 0.0
2015-Jul-28 18:32N 51°59' E 003°59'0 0.0
2015-Jul-28 17:32N 51°59' E 003°59'0 0.0
2015-Jul-28 16:33N 51°59' E 003°59'0 0.4
2015-Jul-28 15:33N 51°59' E 004°00'3 3.2
2015-Jul-28 14:33N 51°58' E 004°05'2 1.6
2015-Jul-28 13:33N 51°57' E 004°08'0 0.0
2015-Jul-28 12:27N 51°57' E 004°08'0 0.0
2015-Jul-28 11:33N 51°57' E 004°08'0 0.0
2015-Jul-28 10:21N 51°57' E 004°08'0 0.0
2015-Jul-28 09:33N 51°57' E 004°08'0 0.0
2015-Jul-28 08:33N 51°57' E 004°08'0 0.0
2015-Jul-28 07:33N 51°57' E 004°08'0 0.0
2015-Jul-28 06:33N 51°57' E 004°08'0 0.0
2015-Jul-28 05:33N 51°57' E 004°08'0 0.0
2015-Jul-28 04:33N 51°57' E 004°08'0 0.0
2015-Jul-28 03:33N 51°57' E 004°08'0 0.0
2015-Jul-28 02:33N 51°57' E 004°08'0 0.0
2015-Jul-28 01:33N 51°57' E 004°08'0 0.0
2015-Jul-28 00:33N 51°57' E 004°08'0 0.0
2015-Jul-27 23:33N 51°57' E 004°08'0 0.0
2015-Jul-27 22:33N 51°57' E 004°08'0 0.0
2015-Jul-27 21:33N 51°57' E 004°08'0 0.0
2015-Jul-27 20:33N 51°57' E 004°08'0 0.0
2015-Jul-27 19:33N 51°57' E 004°08'0 0.0
2015-Jul-27 18:33N 51°57' E 004°08'0 0.0
2015-Jul-27 17:30N 51°57' E 004°08'0 0.0
2015-Jul-27 16:33N 51°57' E 004°08'0 0.0
2015-Jul-27 15:33N 51°57' E 004°08'0 0.0
2015-Jul-27 14:33N 51°57' E 004°08'0 0.0
2015-Jul-27 13:33N 51°57' E 004°08'0 0.0
2015-Jul-27 12:33N 51°57' E 004°08'0 0.0
2015-Jul-27 11:27N 51°57' E 004°08'0 0.0
2015-Jul-27 10:33N 51°57' E 004°08'0 0.0
2015-Jul-27 09:33N 51°57' E 004°08'0 0.0
2015-Jul-27 08:33N 51°57' E 004°08'0 0.0
2015-Jul-27 07:33N 51°57' E 004°08'0 0.0
2015-Jul-27 06:33N 51°57' E 004°08'0 0.0
2015-Jul-27 05:33N 51°57' E 004°08'0 0.0
2015-Jul-27 04:33N 51°57' E 004°08'0 0.0
2015-Jul-27 03:33N 51°57' E 004°08'0 0.0
2015-Jul-27 02:33N 51°57' E 004°08'0 0.0
2015-Jul-27 01:33N 51°57' E 004°08'0 0.0
2015-Jul-27 00:33N 51°57' E 004°08'0 0.0
2015-Jul-26 23:33N 51°57' E 004°08'0 0.0
2015-Jul-26 22:33N 51°57' E 004°08'0 0.0
2015-Jul-26 21:33N 51°57' E 004°08'0 0.0
2015-Jul-26 20:33N 51°57' E 004°08'0 0.0
2015-Jul-26 19:33N 51°57' E 004°08'0 0.0
2015-Jul-26 18:33N 51°57' E 004°08'0 0.0
2015-Jul-26 17:33N 51°57' E 004°08'0 0.0
2015-Jul-26 16:33N 51°57' E 004°08'0 0.0
2015-Jul-26 15:33N 51°57' E 004°08'0 0.0
2015-Jul-26 14:33N 51°57' E 004°08'0 0.0
2015-Jul-26 13:33N 51°57' E 004°08'0 0.0
2015-Jul-26 12:33N 51°57' E 004°08'0 0.0
2015-Jul-26 11:33N 51°57' E 004°08'0 0.0
2015-Jul-26 10:33N 51°57' E 004°08'0 0.0
2015-Jul-26 09:33N 51°57' E 004°08'0 0.0
2015-Jul-26 08:33N 51°57' E 004°08'0 0.0
2015-Jul-26 07:33N 51°57' E 004°08'0 0.0
2015-Jul-26 06:33N 51°57' E 004°08'0 0.0
2015-Jul-26 05:33N 51°57' E 004°08'0 0.0
2015-Jul-26 04:33N 51°57' E 004°08'0 0.0
2015-Jul-26 03:33N 51°57' E 004°08'0 0.0
2015-Jul-26 02:33N 51°57' E 004°08'0 0.0
2015-Jul-26 01:33N 51°57' E 004°08'0 0.0
2015-Jul-26 00:33N 51°57' E 004°08'0 0.0
2015-Jul-25 23:33N 51°57' E 004°08'0 0.0
2015-Jul-25 22:33N 51°57' E 004°08'0 0.0
2015-Jul-25 21:33N 51°57' E 004°08'0 0.0
2015-Jul-25 20:33N 51°57' E 004°08'0 0.0
2015-Jul-25 19:33N 51°57' E 004°08'0 0.0
2015-Jul-25 18:30N 51°57' E 004°08'0 0.0
2015-Jul-25 17:33N 51°57' E 004°08'0 0.0
2015-Jul-25 16:33N 51°57' E 004°08'0 0.0
2015-Jul-25 15:33N 51°57' E 004°08'0 0.0
2015-Jul-25 14:33N 51°57' E 004°08'0 0.0
2015-Jul-25 13:33N 51°57' E 004°08'0 0.0
2015-Jul-25 12:33N 51°57' E 004°08'0 0.0
2015-Jul-25 11:33N 51°57' E 004°08'0 0.0
2015-Jul-25 10:33N 51°57' E 004°08'0 0.0
2015-Jul-25 09:33N 51°57' E 004°08'0 0.0
2015-Jul-25 08:33N 51°57' E 004°08'0 0.0
2015-Jul-25 07:33N 51°57' E 004°08'0 0.0
2015-Jul-25 06:33N 51°57' E 004°08'0 0.0
2015-Jul-25 05:33N 51°57' E 004°08'0 0.0
2015-Jul-25 04:33N 51°57' E 004°08'0 0.0
2015-Jul-25 03:33N 51°57' E 004°08'0 0.0
2015-Jul-25 02:33N 51°57' E 004°08'0 0.0
2015-Jul-25 01:33N 51°57' E 004°08'0 0.0
2015-Jul-25 00:33N 51°57' E 004°08'0 0.0
2015-Jul-24 23:33N 51°57' E 004°08'0 0.0
2015-Jul-24 22:30N 51°57' E 004°08'0 0.0
2015-Jul-24 21:33N 51°57' E 004°08'0 0.0
2015-Jul-24 20:27N 51°57' E 004°08'0 0.0
2015-Jul-24 19:33N 51°57' E 004°08'0 0.0
2015-Jul-24 18:33N 51°57' E 004°08'0 0.0
2015-Jul-24 17:33N 51°57' E 004°08'0 0.0
2015-Jul-24 16:33N 51°57' E 004°08'0 0.0
2015-Jul-24 15:33N 51°57' E 004°08'0 0.0
2015-Jul-24 14:33N 51°57' E 004°08'0 0.0
2015-Jul-24 13:33N 51°57' E 004°08'0 0.0
2015-Jul-24 12:33N 51°57' E 004°08'0 0.0
2015-Jul-24 11:33N 51°57' E 004°08'0 0.0
2015-Jul-24 10:33N 51°57' E 004°08'0 0.0
2015-Jul-24 09:33N 51°57' E 004°08'0 0.0
2015-Jul-24 08:33N 51°57' E 004°08'0 0.0
2015-Jul-24 07:33N 51°57' E 004°08'0 0.0
2015-Jul-24 06:33N 51°57' E 004°08'0 0.0
2015-Jul-24 05:33N 51°57' E 004°08'0 0.0
2015-Jul-24 04:33N 51°57' E 004°08'0 0.0
2015-Jul-24 03:33N 51°57' E 004°08'0 0.0
2015-Jul-24 02:33N 51°57' E 004°08'0 0.0
2015-Jul-24 01:33N 51°57' E 004°08'0 0.0
2015-Jul-24 00:33N 51°57' E 004°08'0 0.0
2015-Jul-23 23:33N 51°57' E 004°08'0 0.0
2015-Jul-23 22:33N 51°57' E 004°08'0 0.0
2015-Jul-23 21:33N 51°57' E 004°08'0 0.0
2015-Jul-23 20:33N 51°57' E 004°08'0 0.0
2015-Jul-23 19:33N 51°57' E 004°08'0 0.0
2015-Jul-23 18:33N 51°57' E 004°08'0 0.0
2015-Jul-23 17:30N 51°57' E 004°08'0 0.0
2015-Jul-23 16:33N 51°57' E 004°08'0 0.0
2015-Jul-23 15:33N 51°57' E 004°08'0 0.0
2015-Jul-23 14:27N 51°57' E 004°08'0 0.0
2015-Jul-23 13:33N 51°57' E 004°08'0 0.0
2015-Jul-23 12:33N 51°57' E 004°08'0 0.0
2015-Jul-23 11:27N 51°57' E 004°08'0 0.0
2015-Jul-23 10:33N 51°57' E 004°08'0 0.0
2015-Jul-23 09:30N 51°57' E 004°08'0 0.0
2015-Jul-23 08:33N 51°57' E 004°08'0 0.0
2015-Jul-23 07:33N 51°57' E 004°08'0 0.0
2015-Jul-23 06:33N 51°57' E 004°08'0 0.0
2015-Jul-23 05:33N 51°57' E 004°08'0 0.0
2015-Jul-23 04:32N 51°57' E 004°08'1 0.7
2015-Jul-23 03:34N 51°57' E 004°09'1 1.0
2015-Jul-23 02:32N 51°56' E 004°10'0 0.0
2015-Jul-23 01:32N 51°56' E 004°10'0 0.0
2015-Jul-23 00:32N 51°56' E 004°10'0 0.0
2015-Jul-22 23:32N 51°56' E 004°10'0 0.0
2015-Jul-22 22:32N 51°56' E 004°10'0 0.0
2015-Jul-22 21:31N 51°56' E 004°10'0 0.0
2015-Jul-22 20:31N 51°56' E 004°10'0 0.0
2015-Jul-22 19:32N 51°56' E 004°10'0 0.0
2015-Jul-22 18:32N 51°56' E 004°10'0 0.0
2015-Jul-22 17:32N 51°56' E 004°10'0 0.0
2015-Jul-22 16:32N 51°56' E 004°10'0 0.0
2015-Jul-22 15:31N 51°56' E 004°10'0 0.0
2015-Jul-22 14:32N 51°56' E 004°10'0 0.0
2015-Jul-22 13:31N 51°56' E 004°10'0 0.0
2015-Jul-22 12:31N 51°56' E 004°10'0 0.0
2015-Jul-22 11:31N 51°56' E 004°10'0 0.0
2015-Jul-22 10:32N 51°56' E 004°10'0 0.0
2015-Jul-22 09:32N 51°56' E 004°10'0 0.0
2015-Jul-22 08:31N 51°56' E 004°10'0 0.0
2015-Jul-22 07:31N 51°56' E 004°10'0 0.0
2015-Jul-22 06:31N 51°56' E 004°10'0 0.0
2015-Jul-22 05:31N 51°56' E 004°10'0 0.0
2015-Jul-22 04:32N 51°56' E 004°10'0 0.0
2015-Jul-22 03:31N 51°56' E 004°10'0 0.0
2015-Jul-22 02:29N 51°56' E 004°10'0 0.0
2015-Jul-22 01:31N 51°56' E 004°10'0 0.0
2015-Jul-22 00:31N 51°56' E 004°10'0 0.0
2015-Jul-21 23:32N 51°56' E 004°10'0 0.0
2015-Jul-21 22:31N 51°56' E 004°10'0 0.0
2015-Jul-21 21:28N 51°56' E 004°10'0 0.0
2015-Jul-21 20:32N 51°56' E 004°10'0 0.0
2015-Jul-21 19:31N 51°56' E 004°10'0 0.0
2015-Jul-21 18:31N 51°56' E 004°10'0 0.0
2015-Jul-21 17:31N 51°56' E 004°10'0 0.0
2015-Jul-21 16:31N 51°56' E 004°10'0 0.0
2015-Jul-21 15:31N 51°56' E 004°10'0 0.0
2015-Jul-21 14:31N 51°56' E 004°10'0 0.0
2015-Jul-21 13:31N 51°56' E 004°10'0 0.0
2015-Jul-21 12:31N 51°56' E 004°10'0 0.0
2015-Jul-21 11:31N 51°56' E 004°10'0 0.0
2015-Jul-21 10:31N 51°56' E 004°10'0 0.0
2015-Jul-21 09:33N 51°56' E 004°10'2 2.3
2015-Jul-21 08:33N 51°58' E 004°07'1010.3
2015-Jul-21 07:33N 52°01' E 003°51'7 6.5
2015-Jul-21 06:32N 52°02' E 003°40'9 0.5
2015-Jul-20 10:33N 52°10' E 003°34'  

Dump ship's entire track history